createdAt,value
2017-02-17T00:00:01.283Z,0
2017-02-17T00:00:34.083Z,0
2017-02-17T00:01:06.858Z,0
2017-02-17T00:01:39.637Z,0
2017-02-17T00:02:12.405Z,0
2017-02-17T00:02:45.181Z,0
2017-02-17T00:03:17.948Z,0
2017-02-17T00:03:50.701Z,0
2017-02-17T00:04:23.465Z,0
2017-02-17T00:04:56.230Z,0
2017-02-17T00:05:29.022Z,0
2017-02-17T00:06:01.786Z,0
2017-02-17T00:06:34.555Z,0
2017-02-17T00:07:07.318Z,0
2017-02-17T00:07:40.140Z,0
2017-02-17T00:08:12.908Z,0
2017-02-17T00:08:45.747Z,0
2017-02-17T00:09:18.505Z,0
2017-02-17T00:09:51.276Z,0
2017-02-17T00:10:24.048Z,0
2017-02-17T00:10:56.828Z,0
2017-02-17T00:11:29.610Z,0
2017-02-17T00:12:02.405Z,0
2017-02-17T00:12:35.169Z,0
2017-02-17T00:13:07.947Z,0
2017-02-17T00:13:40.785Z,0
2017-02-17T00:14:13.578Z,0
2017-02-17T00:14:46.342Z,0
2017-02-17T00:15:19.123Z,0
2017-02-17T00:15:51.934Z,0
2017-02-17T00:16:24.696Z,0
2017-02-17T00:16:57.530Z,0
2017-02-17T00:17:30.317Z,0
2017-02-17T00:18:03.073Z,0
2017-02-17T00:18:35.864Z,0
2017-02-17T00:19:08.636Z,0
2017-02-17T00:19:41.396Z,0
2017-02-17T00:20:14.170Z,0
2017-02-17T00:20:46.929Z,0
2017-02-17T00:21:19.718Z,0
2017-02-17T00:21:52.480Z,0
2017-02-17T00:22:25.279Z,0
2017-02-17T00:22:58.036Z,0
2017-02-17T00:23:30.829Z,0
2017-02-17T00:24:03.624Z,0
2017-02-17T00:24:36.380Z,0
2017-02-17T00:25:09.147Z,0
2017-02-17T00:25:41.980Z,0
2017-02-17T00:26:14.779Z,0
2017-02-17T00:26:47.536Z,0
2017-02-17T00:27:20.300Z,0
2017-02-17T00:27:53.068Z,0
2017-02-17T00:28:25.850Z,0
2017-02-17T00:28:58.602Z,0
2017-02-17T00:29:31.374Z,0
2017-02-17T00:30:04.160Z,0
2017-02-17T00:30:36.931Z,0
2017-02-17T00:31:09.723Z,0
2017-02-17T00:31:42.473Z,0
2017-02-17T00:32:15.270Z,0
2017-02-17T00:32:48.046Z,0
2017-02-17T00:33:20.829Z,0
2017-02-17T00:33:53.596Z,0
2017-02-17T00:34:26.371Z,0
2017-02-17T00:34:59.177Z,0
2017-02-17T00:35:31.956Z,0
2017-02-17T00:36:04.739Z,0
2017-02-17T00:36:37.528Z,0
2017-02-17T00:37:10.298Z,0
2017-02-17T00:37:43.060Z,0
2017-02-17T00:38:15.837Z,0
2017-02-17T00:38:48.665Z,0
2017-02-17T00:39:21.462Z,0
2017-02-17T00:39:54.225Z,0
2017-02-17T00:40:26.967Z,0
2017-02-17T00:40:59.759Z,0
2017-02-17T00:41:32.546Z,0
2017-02-17T00:42:05.303Z,0
2017-02-17T00:42:38.075Z,0
2017-02-17T00:43:10.841Z,0
2017-02-17T00:43:43.630Z,0
2017-02-17T00:44:16.406Z,0
2017-02-17T00:44:49.176Z,0
2017-02-17T00:45:22.021Z,0
2017-02-17T00:45:54.766Z,0
2017-02-17T00:46:27.571Z,0
2017-02-17T00:47:00.334Z,0
2017-02-17T00:47:33.116Z,0
2017-02-17T00:48:05.871Z,0
2017-02-17T00:48:38.660Z,0
2017-02-17T00:49:11.431Z,0
2017-02-17T00:49:44.187Z,0
2017-02-17T00:50:16.969Z,0
2017-02-17T00:50:49.726Z,0
2017-02-17T00:51:22.493Z,0
2017-02-17T00:51:55.297Z,0
2017-02-17T00:52:28.088Z,0
2017-02-17T00:53:00.859Z,0
2017-02-17T00:53:33.622Z,0
2017-02-17T00:54:06.396Z,0
2017-02-17T00:54:39.171Z,0
2017-02-17T00:55:11.934Z,0
2017-02-17T00:55:44.718Z,0
2017-02-17T00:56:17.483Z,0
2017-02-17T00:56:50.248Z,0
2017-02-17T00:57:23.071Z,0
2017-02-17T00:57:55.867Z,0
2017-02-17T00:58:28.639Z,0
2017-02-17T00:59:01.428Z,0
2017-02-17T00:59:34.200Z,0
2017-02-17T01:00:07.112Z,0
2017-02-17T01:00:39.868Z,0
2017-02-17T01:01:12.663Z,0
2017-02-17T01:01:45.432Z,0
2017-02-17T01:02:18.173Z,0
2017-02-17T01:02:50.955Z,0
2017-02-17T01:03:23.707Z,0
2017-02-17T01:03:56.508Z,0
2017-02-17T01:04:29.308Z,0
2017-02-17T01:05:02.087Z,0
2017-02-17T01:05:34.868Z,0
2017-02-17T01:06:07.736Z,0
2017-02-17T01:06:40.542Z,0
2017-02-17T01:07:13.306Z,0
2017-02-17T01:07:46.067Z,0
2017-02-17T01:08:18.841Z,0
2017-02-17T01:08:51.636Z,0
2017-02-17T01:09:24.440Z,0
2017-02-17T01:09:57.205Z,0
2017-02-17T01:10:29.980Z,0
2017-02-17T01:11:02.769Z,0
2017-02-17T01:11:35.544Z,0
2017-02-17T01:12:08.328Z,0
2017-02-17T01:12:41.117Z,0
2017-02-17T01:13:13.903Z,0
2017-02-17T01:13:46.681Z,0
2017-02-17T01:14:19.438Z,0
2017-02-17T01:14:52.225Z,0
2017-02-17T01:15:24.996Z,0
2017-02-17T01:15:57.782Z,0
2017-02-17T01:16:30.590Z,0
2017-02-17T01:17:03.364Z,0
2017-02-17T01:17:36.142Z,0
2017-02-17T01:18:08.914Z,0
2017-02-17T01:18:41.687Z,0
2017-02-17T01:19:14.486Z,0
2017-02-17T01:19:47.256Z,0
2017-02-17T01:20:20.015Z,0
2017-02-17T01:20:52.781Z,0
2017-02-17T01:21:25.588Z,0
2017-02-17T01:21:58.392Z,0
2017-02-17T01:22:31.175Z,0
2017-02-17T01:23:03.989Z,0
2017-02-17T01:23:36.772Z,0
2017-02-17T01:24:09.568Z,0
2017-02-17T01:24:42.377Z,0
2017-02-17T01:25:15.169Z,0
2017-02-17T01:25:47.962Z,0
2017-02-17T01:26:20.711Z,0
2017-02-17T01:26:53.456Z,0
2017-02-17T01:27:26.277Z,0
2017-02-17T01:27:59.045Z,0
2017-02-17T01:28:31.820Z,0
2017-02-17T01:29:04.606Z,0
2017-02-17T01:29:37.386Z,0
2017-02-17T01:30:10.150Z,0
2017-02-17T01:30:42.935Z,0
2017-02-17T01:31:15.715Z,0
2017-02-17T01:31:48.484Z,0
2017-02-17T01:32:21.279Z,0
2017-02-17T01:32:54.055Z,0
2017-02-17T01:33:26.845Z,0
2017-02-17T01:33:59.599Z,0
2017-02-17T01:34:32.385Z,0
2017-02-17T01:35:05.171Z,0
2017-02-17T01:35:37.949Z,0
2017-02-17T01:36:10.713Z,0
2017-02-17T01:36:43.476Z,0
2017-02-17T01:37:16.249Z,0
2017-02-17T01:37:49.012Z,0
2017-02-17T01:38:21.783Z,0
2017-02-17T01:38:54.541Z,0
2017-02-17T01:39:27.296Z,0
2017-02-17T01:40:00.065Z,0
2017-02-17T01:40:32.849Z,0
2017-02-17T01:41:05.605Z,0
2017-02-17T01:41:38.368Z,0
2017-02-17T01:42:11.136Z,0
2017-02-17T01:42:43.917Z,0
2017-02-17T01:43:16.699Z,0
2017-02-17T01:43:49.475Z,0
2017-02-17T01:44:22.235Z,0
2017-02-17T01:44:55.022Z,0
2017-02-17T01:45:27.799Z,0
2017-02-17T01:46:00.559Z,0
2017-02-17T01:46:33.335Z,0
2017-02-17T01:47:06.083Z,0
2017-02-17T01:47:38.867Z,0
2017-02-17T01:48:11.630Z,0
2017-02-17T01:48:44.396Z,0
2017-02-17T01:49:17.189Z,0
2017-02-17T01:49:49.973Z,0
2017-02-17T01:50:22.742Z,0
2017-02-17T01:50:55.505Z,0
2017-02-17T01:51:28.360Z,0
2017-02-17T01:52:01.144Z,0
2017-02-17T01:52:33.920Z,0
2017-02-17T01:53:06.674Z,0
2017-02-17T01:53:39.438Z,0
2017-02-17T01:54:12.205Z,0
2017-02-17T01:54:44.989Z,0
2017-02-17T01:55:17.755Z,0
2017-02-17T01:55:50.558Z,0
2017-02-17T01:56:23.331Z,0
2017-02-17T01:56:56.133Z,0
2017-02-17T01:57:28.905Z,0
2017-02-17T01:58:01.671Z,0
2017-02-17T01:58:34.457Z,0
2017-02-17T01:59:07.227Z,0
2017-02-17T01:59:40.008Z,0
2017-02-17T02:00:12.778Z,0
2017-02-17T02:00:45.545Z,0
2017-02-17T02:01:18.317Z,0
2017-02-17T02:01:51.079Z,0
2017-02-17T02:02:23.875Z,0
2017-02-17T02:02:56.655Z,0
2017-02-17T02:03:29.463Z,0
2017-02-17T02:04:02.254Z,0
2017-02-17T02:04:35.029Z,0
2017-02-17T02:05:07.794Z,0
2017-02-17T02:05:40.563Z,0
2017-02-17T02:06:13.389Z,0
2017-02-17T02:06:46.161Z,0
2017-02-17T02:07:18.914Z,0
2017-02-17T02:07:51.672Z,0
2017-02-17T02:08:24.470Z,0
2017-02-17T02:08:57.244Z,0
2017-02-17T02:09:30.018Z,0
2017-02-17T02:10:02.795Z,0
2017-02-17T02:10:35.572Z,0
2017-02-17T02:11:08.350Z,0
2017-02-17T02:11:41.136Z,0
2017-02-17T02:12:13.903Z,0
2017-02-17T02:12:46.659Z,0
2017-02-17T02:13:19.428Z,0
2017-02-17T02:13:52.200Z,0
2017-02-17T02:14:24.994Z,0
2017-02-17T02:14:57.772Z,0
2017-02-17T02:15:30.561Z,0
2017-02-17T02:16:03.362Z,0
2017-02-17T02:16:36.136Z,0
2017-02-17T02:17:08.930Z,0
2017-02-17T02:17:41.719Z,0
2017-02-17T02:18:14.484Z,0
2017-02-17T02:18:47.263Z,0
2017-02-17T02:19:20.032Z,0
2017-02-17T02:19:52.812Z,0
2017-02-17T02:20:25.612Z,0
2017-02-17T02:20:58.367Z,0
2017-02-17T02:21:31.141Z,0
2017-02-17T02:22:04.455Z,0
2017-02-17T02:22:37.250Z,0
2017-02-17T02:23:10.028Z,0
2017-02-17T02:23:42.810Z,0
2017-02-17T02:24:15.591Z,0
2017-02-17T02:24:48.417Z,0
2017-02-17T02:25:21.187Z,0
2017-02-17T02:25:53.949Z,0
2017-02-17T02:26:26.730Z,0
2017-02-17T02:26:59.506Z,0
2017-02-17T02:27:32.261Z,0
2017-02-17T02:28:05.078Z,0
2017-02-17T02:28:37.872Z,0
2017-02-17T02:29:10.682Z,0
2017-02-17T02:29:43.506Z,0
2017-02-17T02:30:16.266Z,0
2017-02-17T02:30:49.036Z,0
2017-02-17T02:31:21.825Z,0
2017-02-17T02:31:54.585Z,0
2017-02-17T02:32:27.366Z,0
2017-02-17T02:33:00.139Z,0
2017-02-17T02:33:32.885Z,0
2017-02-17T02:34:05.664Z,0
2017-02-17T02:34:38.438Z,0
2017-02-17T02:35:11.223Z,0
2017-02-17T02:35:43.997Z,0
2017-02-17T02:36:16.803Z,0
2017-02-17T02:36:49.574Z,0
2017-02-17T02:37:22.335Z,0
2017-02-17T02:37:55.112Z,0
2017-02-17T02:38:27.905Z,0
2017-02-17T02:39:00.681Z,0
2017-02-17T02:39:33.459Z,0
2017-02-17T02:40:06.216Z,0
2017-02-17T02:40:38.990Z,0
2017-02-17T02:41:11.763Z,0
2017-02-17T02:41:44.561Z,0
2017-02-17T02:42:17.317Z,0
2017-02-17T02:42:50.112Z,0
2017-02-17T02:43:22.893Z,0
2017-02-17T02:43:55.644Z,0
2017-02-17T02:44:28.405Z,0
2017-02-17T02:45:01.189Z,0
2017-02-17T02:45:33.974Z,0
2017-02-17T02:46:06.741Z,0
2017-02-17T02:46:39.511Z,0
2017-02-17T02:47:12.319Z,0
2017-02-17T02:47:45.084Z,0
2017-02-17T02:48:17.860Z,0
2017-02-17T02:48:50.649Z,0
2017-02-17T02:49:23.437Z,0
2017-02-17T02:49:56.205Z,0
2017-02-17T02:50:28.961Z,0
2017-02-17T02:51:01.727Z,0
2017-02-17T02:51:34.483Z,0
2017-02-17T02:52:07.265Z,0
2017-02-17T02:52:40.023Z,0
2017-02-17T02:53:12.772Z,0
2017-02-17T02:53:45.589Z,0
2017-02-17T02:54:18.380Z,0
2017-02-17T02:54:51.145Z,0
2017-02-17T02:55:23.920Z,0
2017-02-17T02:55:56.682Z,0
2017-02-17T02:56:29.453Z,0
2017-02-17T02:57:02.243Z,0
2017-02-17T02:57:35.037Z,0
2017-02-17T02:58:07.802Z,0
2017-02-17T02:58:40.589Z,0
2017-02-17T02:59:13.357Z,0
2017-02-17T02:59:46.152Z,0
2017-02-17T03:00:18.925Z,0
2017-02-17T03:00:51.705Z,0
2017-02-17T03:01:24.481Z,0
2017-02-17T03:01:57.258Z,0
2017-02-17T03:02:30.020Z,0
2017-02-17T03:03:02.820Z,0
2017-02-17T03:03:35.595Z,0
2017-02-17T03:04:08.363Z,0
2017-02-17T03:04:41.127Z,0
2017-02-17T03:05:13.904Z,0
2017-02-17T03:05:46.673Z,0
2017-02-17T03:06:19.439Z,0
2017-02-17T03:06:52.241Z,0
2017-02-17T03:07:25.015Z,0
2017-02-17T03:07:57.787Z,0
2017-02-17T03:08:30.556Z,0
2017-02-17T03:09:03.352Z,0
2017-02-17T03:09:36.127Z,0
2017-02-17T03:10:08.877Z,0
2017-02-17T03:10:41.618Z,0
2017-02-17T03:11:14.408Z,0
2017-02-17T03:11:47.194Z,0
2017-02-17T03:12:19.963Z,0
2017-02-17T03:12:52.739Z,0
2017-02-17T03:13:25.488Z,0
2017-02-17T03:13:58.247Z,0
2017-02-17T03:14:31.037Z,0
2017-02-17T03:15:03.856Z,0
2017-02-17T03:15:36.600Z,0
2017-02-17T03:16:09.397Z,0
2017-02-17T03:16:42.172Z,0
2017-02-17T03:17:14.969Z,0
2017-02-17T03:17:47.753Z,0
2017-02-17T03:18:20.516Z,0
2017-02-17T03:18:53.344Z,0
2017-02-17T03:19:26.110Z,0
2017-02-17T03:19:58.876Z,0
2017-02-17T03:20:31.633Z,0
2017-02-17T03:21:04.398Z,0
2017-02-17T03:21:37.144Z,0
2017-02-17T03:22:09.913Z,0
2017-02-17T03:22:42.727Z,0
2017-02-17T03:23:15.550Z,0
2017-02-17T03:23:48.445Z,0
2017-02-17T03:24:21.231Z,0
2017-02-17T03:24:53.980Z,0
2017-02-17T03:25:26.770Z,0
2017-02-17T03:25:59.531Z,0
2017-02-17T03:26:32.303Z,0
2017-02-17T03:27:05.095Z,0
2017-02-17T03:27:37.857Z,0
2017-02-17T03:28:10.609Z,0
2017-02-17T03:28:43.409Z,0
2017-02-17T03:29:16.182Z,0
2017-02-17T03:29:48.940Z,0
2017-02-17T03:30:21.739Z,0
2017-02-17T03:30:54.530Z,0
2017-02-17T03:31:27.337Z,0
2017-02-17T03:32:00.134Z,0
2017-02-17T03:32:32.892Z,0
2017-02-17T03:33:05.677Z,0
2017-02-17T03:33:38.453Z,0
2017-02-17T03:34:11.221Z,0
2017-02-17T03:34:43.993Z,0
2017-02-17T03:35:16.791Z,0
2017-02-17T03:35:49.560Z,0
2017-02-17T03:36:22.389Z,0
2017-02-17T03:36:55.173Z,0
2017-02-17T03:37:27.930Z,0
2017-02-17T03:38:00.682Z,0
2017-02-17T03:38:33.465Z,0
2017-02-17T03:39:06.235Z,0
2017-02-17T03:39:39.005Z,0
2017-02-17T03:40:11.780Z,0
2017-02-17T03:40:44.555Z,0
2017-02-17T03:41:17.311Z,0
2017-02-17T03:41:50.084Z,0
2017-02-17T03:42:22.851Z,0
2017-02-17T03:42:55.597Z,0
2017-02-17T03:43:28.372Z,0
2017-02-17T03:44:01.132Z,0
2017-02-17T03:44:33.901Z,0
2017-02-17T03:45:06.654Z,0
2017-02-17T03:45:39.418Z,0
2017-02-17T03:46:12.184Z,0
2017-02-17T03:46:44.952Z,0
2017-02-17T03:47:17.733Z,0
2017-02-17T03:47:50.517Z,0
2017-02-17T03:48:23.308Z,0
2017-02-17T03:48:56.069Z,0
2017-02-17T03:49:28.845Z,0
2017-02-17T03:50:01.603Z,0
2017-02-17T03:50:34.365Z,0
2017-02-17T03:51:07.122Z,0
2017-02-17T03:51:39.875Z,0
2017-02-17T03:52:12.653Z,0
2017-02-17T03:52:45.456Z,0
2017-02-17T03:53:18.232Z,0
2017-02-17T03:53:50.990Z,0
2017-02-17T03:54:23.775Z,0
2017-02-17T03:54:56.549Z,0
2017-02-17T03:55:29.313Z,0
2017-02-17T03:56:02.077Z,0
2017-02-17T03:56:34.847Z,0
2017-02-17T03:57:07.610Z,0
2017-02-17T03:57:40.405Z,0
2017-02-17T03:58:13.156Z,0
2017-02-17T03:58:45.936Z,0
2017-02-17T03:59:18.696Z,0
2017-02-17T03:59:51.457Z,0
2017-02-17T04:00:24.221Z,0
2017-02-17T04:00:56.997Z,0
2017-02-17T04:01:29.794Z,0
2017-02-17T04:02:02.577Z,0
2017-02-17T04:02:35.353Z,0
2017-02-17T04:03:08.139Z,0
2017-02-17T04:03:40.905Z,0
2017-02-17T04:04:13.678Z,0
2017-02-17T04:04:46.432Z,0
2017-02-17T04:05:19.196Z,0
2017-02-17T04:05:51.962Z,0
2017-02-17T04:06:24.744Z,0
2017-02-17T04:06:57.523Z,0
2017-02-17T04:07:30.294Z,0
2017-02-17T04:08:03.103Z,0
2017-02-17T04:08:35.859Z,0
2017-02-17T04:09:08.605Z,0
2017-02-17T04:09:41.389Z,0
2017-02-17T04:10:14.170Z,0
2017-02-17T04:10:46.943Z,0
2017-02-17T04:11:19.717Z,0
2017-02-17T04:11:52.470Z,0
2017-02-17T04:12:25.245Z,0
2017-02-17T04:12:58.023Z,0
2017-02-17T04:13:30.802Z,0
2017-02-17T04:14:03.607Z,0
2017-02-17T04:14:36.368Z,0
2017-02-17T04:15:09.164Z,0
2017-02-17T04:15:41.935Z,0
2017-02-17T04:16:14.733Z,0
2017-02-17T04:16:47.499Z,0
2017-02-17T04:17:20.321Z,0
2017-02-17T04:17:53.109Z,0
2017-02-17T04:18:25.872Z,0
2017-02-17T04:18:58.657Z,0
2017-02-17T04:19:31.414Z,0
2017-02-17T04:20:04.194Z,0
2017-02-17T04:20:36.992Z,0
2017-02-17T04:21:09.805Z,0
2017-02-17T04:21:42.581Z,0
2017-02-17T04:22:15.362Z,0
2017-02-17T04:22:48.173Z,0
2017-02-17T04:23:20.953Z,0
2017-02-17T04:23:53.726Z,0
2017-02-17T04:24:26.499Z,0
2017-02-17T04:24:59.266Z,0
2017-02-17T04:25:32.050Z,0
2017-02-17T04:26:04.812Z,0
2017-02-17T04:26:37.574Z,0
2017-02-17T04:27:10.346Z,0
2017-02-17T04:27:43.130Z,0
2017-02-17T04:28:15.899Z,0
2017-02-17T04:28:48.660Z,0
2017-02-17T04:29:21.419Z,0
2017-02-17T04:29:54.174Z,0
2017-02-17T04:30:26.923Z,0
2017-02-17T04:30:59.685Z,0
2017-02-17T04:31:32.451Z,0
2017-02-17T04:32:05.261Z,0
2017-02-17T04:32:38.020Z,0
2017-02-17T04:33:10.803Z,0
2017-02-17T04:33:43.556Z,0
2017-02-17T04:34:16.322Z,0
2017-02-17T04:34:49.117Z,0
2017-02-17T04:35:21.870Z,0
2017-02-17T04:35:54.647Z,0
2017-02-17T04:36:27.409Z,0
2017-02-17T04:37:00.186Z,0
2017-02-17T04:37:32.983Z,0
2017-02-17T04:38:05.772Z,0
2017-02-17T04:38:38.546Z,0
2017-02-17T04:39:11.309Z,0
2017-02-17T04:39:44.124Z,0
2017-02-17T04:40:16.930Z,0
2017-02-17T04:40:49.724Z,0
2017-02-17T04:41:22.491Z,0
2017-02-17T04:41:55.262Z,0
2017-02-17T04:42:28.040Z,0
2017-02-17T04:43:00.810Z,0
2017-02-17T04:43:33.569Z,0
2017-02-17T04:44:06.327Z,0
2017-02-17T04:44:39.127Z,0
2017-02-17T04:45:11.911Z,0
2017-02-17T04:45:44.664Z,0
2017-02-17T04:46:17.441Z,0
2017-02-17T04:46:50.235Z,0
2017-02-17T04:47:22.986Z,0
2017-02-17T04:47:55.744Z,0
2017-02-17T04:48:28.536Z,0
2017-02-17T04:49:01.318Z,0
2017-02-17T04:49:34.076Z,0
2017-02-17T04:50:06.842Z,0
2017-02-17T04:50:39.675Z,0
2017-02-17T04:51:12.475Z,0
2017-02-17T04:51:45.301Z,0
2017-02-17T04:52:18.064Z,0
2017-02-17T04:52:50.843Z,0
2017-02-17T04:53:23.608Z,0
2017-02-17T04:53:56.358Z,0
2017-02-17T04:54:29.130Z,0
2017-02-17T04:55:01.923Z,0
2017-02-17T04:55:34.682Z,0
2017-02-17T04:56:07.460Z,0
2017-02-17T04:56:40.219Z,0
2017-02-17T04:57:12.995Z,0
2017-02-17T04:57:45.775Z,0
2017-02-17T04:58:18.569Z,0
2017-02-17T04:58:51.354Z,0
2017-02-17T04:59:24.129Z,0
2017-02-17T04:59:56.889Z,0
2017-02-17T05:00:29.660Z,0
2017-02-17T05:01:02.444Z,0
2017-02-17T05:01:36.080Z,0
2017-02-17T05:02:08.862Z,0
2017-02-17T05:02:41.636Z,0
2017-02-17T05:03:14.393Z,0
2017-02-17T05:03:47.177Z,0
2017-02-17T05:04:19.950Z,0
2017-02-17T05:04:52.716Z,0
2017-02-17T05:05:25.499Z,0
2017-02-17T05:05:58.274Z,0
2017-02-17T05:06:31.035Z,0
2017-02-17T05:07:03.807Z,0
2017-02-17T05:07:36.581Z,0
2017-02-17T05:08:09.353Z,0
2017-02-17T05:08:42.148Z,0
2017-02-17T05:09:14.927Z,0
2017-02-17T05:09:47.681Z,0
2017-02-17T05:10:20.501Z,0
2017-02-17T05:10:53.275Z,0
2017-02-17T05:11:26.036Z,0
2017-02-17T05:11:58.790Z,0
2017-02-17T05:12:31.573Z,0
2017-02-17T05:13:04.349Z,0
2017-02-17T05:13:37.129Z,0
2017-02-17T05:14:09.907Z,0
2017-02-17T05:14:42.683Z,0
2017-02-17T05:15:15.478Z,0
2017-02-17T05:15:48.249Z,0
2017-02-17T05:16:21.033Z,0
2017-02-17T05:16:53.806Z,0
2017-02-17T05:17:26.629Z,0
2017-02-17T05:17:59.402Z,0
2017-02-17T05:18:32.180Z,0
2017-02-17T05:19:04.945Z,0
2017-02-17T05:19:37.758Z,0
2017-02-17T05:20:10.505Z,0
2017-02-17T05:20:43.269Z,0
2017-02-17T05:21:16.175Z,0
2017-02-17T05:21:48.948Z,0
2017-02-17T05:22:21.721Z,0
2017-02-17T05:22:54.502Z,0
2017-02-17T05:23:27.265Z,0
2017-02-17T05:24:00.072Z,0
2017-02-17T05:24:33.020Z,0
2017-02-17T05:25:06.681Z,0
2017-02-17T05:25:39.455Z,0
2017-02-17T05:26:12.217Z,0
2017-02-17T05:26:45.010Z,0
2017-02-17T05:27:17.787Z,0
2017-02-17T05:27:50.547Z,0
2017-02-17T05:28:23.325Z,0
2017-02-17T05:28:56.107Z,0
2017-02-17T05:29:28.878Z,0
2017-02-17T05:30:01.801Z,0
2017-02-17T05:30:34.562Z,0
2017-02-17T05:31:07.344Z,0
2017-02-17T05:31:40.141Z,0
2017-02-17T05:32:12.928Z,0
2017-02-17T05:32:45.707Z,0
2017-02-17T05:33:18.478Z,0
2017-02-17T05:33:51.233Z,0
2017-02-17T05:34:24.001Z,0
2017-02-17T05:34:56.771Z,0
2017-02-17T05:35:29.544Z,0
2017-02-17T05:36:02.338Z,0
2017-02-17T05:36:35.132Z,0
2017-02-17T05:37:07.949Z,0
2017-02-17T05:37:40.735Z,0
2017-02-17T05:38:13.524Z,0
2017-02-17T05:38:46.305Z,0
2017-02-17T05:39:19.076Z,0
2017-02-17T05:39:51.865Z,0
2017-02-17T05:40:24.643Z,0
2017-02-17T05:40:57.409Z,0
2017-02-17T05:41:30.189Z,0
2017-02-17T05:42:02.982Z,0
2017-02-17T05:42:35.759Z,0
2017-02-17T05:43:08.516Z,0
2017-02-17T05:43:41.306Z,0
2017-02-17T05:44:14.071Z,0
2017-02-17T05:44:46.847Z,0
2017-02-17T05:45:19.610Z,0
2017-02-17T05:45:52.416Z,0
2017-02-17T05:46:25.251Z,0
2017-02-17T05:46:58.055Z,0
2017-02-17T05:47:30.846Z,0
2017-02-17T05:48:03.644Z,0
2017-02-17T05:48:36.415Z,0
2017-02-17T05:49:09.209Z,0
2017-02-17T05:49:41.989Z,0
2017-02-17T05:50:14.761Z,0
2017-02-17T05:50:47.522Z,0
2017-02-17T05:51:20.292Z,0
2017-02-17T05:51:53.819Z,0
2017-02-17T05:52:26.621Z,0
2017-02-17T05:52:59.409Z,0
2017-02-17T05:53:32.208Z,0
2017-02-17T05:54:04.997Z,0
2017-02-17T05:54:37.753Z,0
2017-02-17T05:55:10.519Z,0
2017-02-17T05:55:43.301Z,0
2017-02-17T05:56:16.052Z,0
2017-02-17T05:56:48.829Z,0
2017-02-17T05:57:21.608Z,0
2017-02-17T05:57:54.419Z,0
2017-02-17T05:58:27.185Z,0
2017-02-17T05:58:59.983Z,0
2017-02-17T05:59:32.757Z,0
2017-02-17T06:00:05.549Z,0
2017-02-17T06:00:38.312Z,0
2017-02-17T06:01:11.061Z,0
2017-02-17T06:01:43.849Z,0
2017-02-17T06:02:16.598Z,0
2017-02-17T06:02:49.358Z,0
2017-02-17T06:03:22.129Z,0
2017-02-17T06:03:54.915Z,0
2017-02-17T06:04:27.690Z,0
2017-02-17T06:05:00.445Z,0
2017-02-17T06:05:33.810Z,0
2017-02-17T06:06:06.593Z,0
2017-02-17T06:06:39.341Z,0
2017-02-17T06:07:12.128Z,0
2017-02-17T06:07:44.909Z,0
2017-02-17T06:08:17.672Z,0
2017-02-17T06:08:50.434Z,0
2017-02-17T06:09:23.229Z,0
2017-02-17T06:09:56.022Z,0
2017-02-17T06:10:28.783Z,0
2017-02-17T06:11:01.583Z,0
2017-02-17T06:11:34.351Z,0
2017-02-17T06:12:07.151Z,0
2017-02-17T06:12:39.916Z,0
2017-02-17T06:13:12.693Z,0
2017-02-17T06:13:45.447Z,0
2017-02-17T06:14:18.215Z,0
2017-02-17T06:14:50.993Z,0
2017-02-17T06:15:23.755Z,0
2017-02-17T06:15:56.520Z,0
2017-02-17T06:16:29.291Z,0
2017-02-17T06:17:02.041Z,0
2017-02-17T06:17:34.835Z,0
2017-02-17T06:18:07.616Z,0
2017-02-17T06:18:40.418Z,0
2017-02-17T06:19:13.222Z,0
2017-02-17T06:19:45.997Z,0
2017-02-17T06:20:18.805Z,0
2017-02-17T06:20:51.562Z,0
2017-02-17T06:21:24.342Z,0
2017-02-17T06:21:59.652Z,0
2017-02-17T06:22:32.436Z,0
2017-02-17T06:23:05.200Z,0
2017-02-17T06:23:37.981Z,0
2017-02-17T06:24:10.794Z,0
2017-02-17T06:24:43.566Z,0
2017-02-17T06:25:16.342Z,0
2017-02-17T06:25:49.110Z,0
2017-02-17T06:26:21.872Z,0
2017-02-17T06:26:54.649Z,0
2017-02-17T06:27:27.400Z,0
2017-02-17T06:28:00.169Z,0
2017-02-17T06:28:32.944Z,0
2017-02-17T06:30:25.218Z,0
2017-02-17T06:30:57.992Z,0
2017-02-17T06:31:30.760Z,0
2017-02-17T06:32:03.533Z,0
2017-02-17T06:32:36.285Z,0
2017-02-17T06:33:09.062Z,0
2017-02-17T06:33:41.820Z,0
2017-02-17T06:34:14.640Z,0
2017-02-17T06:34:47.400Z,0
2017-02-17T06:35:20.192Z,0
2017-02-17T06:35:52.962Z,0
2017-02-17T06:36:25.758Z,0
2017-02-17T06:36:58.532Z,0
2017-02-17T06:37:31.292Z,0
2017-02-17T06:38:04.070Z,0
2017-02-17T06:38:36.855Z,0
2017-02-17T06:39:09.627Z,0
2017-02-17T06:41:01.876Z,0
2017-02-17T06:41:34.640Z,0
2017-02-17T06:42:07.419Z,0
2017-02-17T06:42:40.228Z,0
2017-02-17T06:43:12.991Z,0
2017-02-17T06:43:45.751Z,0
2017-02-17T06:44:18.532Z,0
2017-02-17T06:44:51.312Z,0
2017-02-17T06:45:24.067Z,0
2017-02-17T06:45:56.910Z,0
2017-02-17T06:46:29.713Z,0
2017-02-17T06:47:02.476Z,0
2017-02-17T06:47:35.286Z,0
2017-02-17T06:48:08.047Z,0
2017-02-17T06:48:40.816Z,0
2017-02-17T06:49:13.562Z,0
2017-02-17T06:49:46.329Z,0
2017-02-17T06:50:19.108Z,0
2017-02-17T06:50:51.893Z,0
2017-02-17T06:51:24.691Z,0
2017-02-17T06:51:57.462Z,0
2017-02-17T06:52:30.231Z,0
2017-02-17T06:53:02.988Z,0
2017-02-17T06:53:35.788Z,0
2017-02-17T06:54:08.573Z,0
2017-02-17T06:54:41.392Z,0
2017-02-17T06:55:14.144Z,0
2017-02-17T06:55:46.914Z,0
2017-02-17T06:56:19.710Z,0
2017-02-17T06:56:52.487Z,0
2017-02-17T06:57:25.247Z,0
2017-02-17T06:57:58.414Z,0
2017-02-17T06:58:31.204Z,0
2017-02-17T06:59:03.968Z,0
2017-02-17T06:59:36.772Z,0
2017-02-17T07:04:36.078Z,0
2017-02-17T07:05:10.946Z,0
2017-02-17T07:05:44.299Z,0
2017-02-17T07:06:32.921Z,0
2017-02-17T07:11:12.677Z,0
2017-02-17T07:12:13.737Z,0
2017-02-17T07:13:02.848Z,0
2017-02-17T07:16:13.480Z,5
2017-02-17T07:16:49.814Z,5
2017-02-17T07:17:22.966Z,5
2017-02-17T07:17:55.751Z,5
2017-02-17T07:18:30.941Z,5
2017-02-17T07:19:04.543Z,5
2017-02-17T07:19:37.307Z,5
2017-02-17T07:21:50.251Z,5
2017-02-17T07:22:26.204Z,0
2017-02-17T07:23:01.871Z,5
2017-02-17T07:23:34.981Z,0
2017-02-17T07:24:14.755Z,0
2017-02-17T07:24:53.628Z,0
2017-02-17T07:25:29.276Z,0
2017-02-17T07:26:05.857Z,0
2017-02-17T07:27:06.793Z,0
2017-02-17T07:27:54.985Z,0
2017-02-17T07:28:33.652Z,0
2017-02-17T07:29:11.787Z,0
2017-02-17T07:29:52.621Z,0
2017-02-17T07:30:32.756Z,0
2017-02-17T07:31:10.249Z,0
2017-02-17T07:31:52.145Z,0
2017-02-17T07:32:30.625Z,0
2017-02-17T07:33:07.031Z,0
2017-02-17T07:33:40.731Z,0
2017-02-17T07:34:15.055Z,0
2017-02-17T07:34:58.628Z,0
2017-02-17T07:35:37.622Z,0
2017-02-17T07:36:12.351Z,0
2017-02-17T07:36:48.266Z,0
2017-02-17T07:37:23.133Z,0
2017-02-17T07:37:57.094Z,0
2017-02-17T07:38:32.132Z,0
2017-02-17T07:39:06.886Z,0
2017-02-17T07:39:43.499Z,0
2017-02-17T07:40:25.648Z,0
2017-02-17T07:41:03.648Z,0
2017-02-17T07:41:38.638Z,0
2017-02-17T07:42:12.416Z,0
2017-02-17T07:42:51.133Z,0
2017-02-17T07:43:23.931Z,0
2017-02-17T07:43:58.249Z,0
2017-02-17T07:44:31.051Z,0
2017-02-17T07:45:05.732Z,0
2017-02-17T07:45:44.282Z,0
2017-02-17T07:46:19.232Z,0
2017-02-17T07:46:52.539Z,0
2017-02-17T07:47:26.959Z,0
2017-02-17T07:48:01.533Z,0
2017-02-17T07:48:35.049Z,0
2017-02-17T07:49:13.148Z,0
2017-02-17T07:49:49.206Z,0
2017-02-17T07:50:24.024Z,5
2017-02-17T07:50:59.642Z,5
2017-02-17T07:51:33.141Z,5
2017-02-17T07:52:06.539Z,5
2017-02-17T07:52:40.298Z,5
2017-02-17T07:56:09.791Z,5
2017-02-17T07:56:42.855Z,5
2017-02-17T07:57:15.670Z,5
2017-02-17T07:57:48.497Z,5
2017-02-17T07:58:22.643Z,5
2017-02-17T07:58:55.839Z,5
2017-02-17T07:59:28.732Z,10
2017-02-17T08:03:03.795Z,10
2017-02-17T08:03:37.275Z,10
2017-02-17T08:04:15.492Z,10
2017-02-17T08:04:49.635Z,10
2017-02-17T08:05:26.218Z,10
2017-02-17T08:06:22.319Z,10
2017-02-17T08:08:01.650Z,10
2017-02-17T08:08:38.136Z,10
2017-02-17T08:09:13.142Z,10
2017-02-17T08:09:49.641Z,10
2017-02-17T08:10:31.400Z,15
2017-02-17T08:11:09.143Z,15
2017-02-17T08:11:44.405Z,15
2017-02-17T08:12:22.497Z,25
2017-02-17T08:14:52.061Z,25
2017-02-17T08:15:24.942Z,35
2017-02-17T08:16:00.801Z,35
2017-02-17T08:16:39.717Z,40
2017-02-17T08:17:13.594Z,40
2017-02-17T08:17:50.333Z,45
2017-02-17T08:18:23.173Z,40
2017-02-17T08:20:58.660Z,45
2017-02-17T08:21:31.482Z,40
2017-02-17T08:22:04.234Z,35
2017-02-17T08:22:37.133Z,40
2017-02-17T08:23:10.002Z,40
2017-02-17T08:23:42.860Z,35
2017-02-17T08:24:19.277Z,35
2017-02-17T08:25:16.526Z,35
2017-02-17T08:25:49.295Z,35
2017-02-17T08:26:22.065Z,30
2017-02-17T08:26:55.782Z,25
2017-02-17T08:27:30.059Z,25
2017-02-17T08:28:04.257Z,25
2017-02-17T08:28:39.928Z,25
2017-02-17T08:29:15.263Z,25
2017-02-17T08:29:49.544Z,20
2017-02-17T08:30:25.387Z,20
2017-02-17T08:30:59.071Z,15
2017-02-17T08:31:34.573Z,15
2017-02-17T08:32:08.266Z,10
2017-02-17T08:32:42.794Z,10
2017-02-17T08:33:15.675Z,10
2017-02-17T08:33:48.467Z,10
2017-02-17T08:34:21.225Z,10
2017-02-17T08:34:54.120Z,10
2017-02-17T08:35:26.956Z,10
2017-02-17T08:35:59.731Z,5
2017-02-17T08:36:32.528Z,10
2017-02-17T08:37:05.318Z,5